sensor_id;sensor_type;location;lat;lon;timestamp;temperature;humidity
5834;DHT22;2943;48.012;10.968;2023-08-08T00:02:22;11.70;99.90
5834;DHT22;2943;48.012;10.968;2023-08-08T00:04:49;11.70;99.90
5834;DHT22;2943;48.012;10.968;2023-08-08T00:07:15;11.70;99.90
5834;DHT22;2943;48.012;10.968;2023-08-08T00:09:42;11.70;99.90
5834;DHT22;2943;48.012;10.968;2023-08-08T00:12:09;11.80;99.90
5834;DHT22;2943;48.012;10.968;2023-08-08T00:14:37;11.70;99.90
5834;DHT22;2943;48.012;10.968;2023-08-08T00:17:03;11.80;99.90
5834;DHT22;2943;48.012;10.968;2023-08-08T00:19:30;11.80;99.90
5834;DHT22;2943;48.012;10.968;2023-08-08T00:21:57;11.80;99.90
5834;DHT22;2943;48.012;10.968;2023-08-08T00:24:23;11.80;99.90
5834;DHT22;2943;48.012;10.968;2023-08-08T00:26:50;11.80;99.90
5834;DHT22;2943;48.012;10.968;2023-08-08T00:29:16;11.80;99.90
5834;DHT22;2943;48.012;10.968;2023-08-08T00:31:44;11.80;99.90
5834;DHT22;2943;48.012;10.968;2023-08-08T00:34:11;11.80;99.90
5834;DHT22;2943;48.012;10.968;2023-08-08T00:36:38;11.90;99.90
5834;DHT22;2943;48.012;10.968;2023-08-08T00:39:04;11.80;99.90
5834;DHT22;2943;48.012;10.968;2023-08-08T00:41:31;11.80;99.90
5834;DHT22;2943;48.012;10.968;2023-08-08T00:43:58;11.80;99.90
5834;DHT22;2943;48.012;10.968;2023-08-08T00:46:24;11.80;99.90
5834;DHT22;2943;48.012;10.968;2023-08-08T00:48:52;11.80;99.90
5834;DHT22;2943;48.012;10.968;2023-08-08T00:51:19;11.80;99.90
5834;DHT22;2943;48.012;10.968;2023-08-08T00:53:46;11.80;99.90
5834;DHT22;2943;48.012;10.968;2023-08-08T00:56:13;11.80;99.90
5834;DHT22;2943;48.012;10.968;2023-08-08T00:58:42;11.80;99.90
5834;DHT22;2943;48.012;10.968;2023-08-08T01:01:10;11.80;99.90
5834;DHT22;2943;48.012;10.968;2023-08-08T01:03:37;11.80;99.90
5834;DHT22;2943;48.012;10.968;2023-08-08T01:06:05;11.80;99.90
5834;DHT22;2943;48.012;10.968;2023-08-08T01:08:35;11.80;99.90
5834;DHT22;2943;48.012;10.968;2023-08-08T01:11:05;11.80;99.90
5834;DHT22;2943;48.012;10.968;2023-08-08T01:13:32;11.80;99.90
5834;DHT22;2943;48.012;10.968;2023-08-08T01:15:59;11.80;99.90
5834;DHT22;2943;48.012;10.968;2023-08-08T01:18:26;11.80;99.90
5834;DHT22;2943;48.012;10.968;2023-08-08T01:20:53;11.70;99.90
5834;DHT22;2943;48.012;10.968;2023-08-08T01:23:24;11.70;99.90
5834;DHT22;2943;48.012;10.968;2023-08-08T01:25:53;11.70;99.90
5834;DHT22;2943;48.012;10.968;2023-08-08T01:28:20;11.70;99.90
5834;DHT22;2943;48.012;10.968;2023-08-08T01:30:47;11.70;99.90
5834;DHT22;2943;48.012;10.968;2023-08-08T01:33:14;11.60;99.90
5834;DHT22;2943;48.012;10.968;2023-08-08T01:35:42;11.60;99.90
5834;DHT22;2943;48.012;10.968;2023-08-08T01:38:11;11.50;99.90
5834;DHT22;2943;48.012;10.968;2023-08-08T01:40:39;11.50;99.90
5834;DHT22;2943;48.012;10.968;2023-08-08T01:43:07;11.50;99.90
5834;DHT22;2943;48.012;10.968;2023-08-08T01:45:35;11.40;99.90
5834;DHT22;2943;48.012;10.968;2023-08-08T01:48:05;11.40;99.90
5834;DHT22;2943;48.012;10.968;2023-08-08T01:50:32;11.40;99.90
5834;DHT22;2943;48.012;10.968;2023-08-08T01:52:58;11.30;99.90
5834;DHT22;2943;48.012;10.968;2023-08-08T01:55:25;11.30;99.90
5834;DHT22;2943;48.012;10.968;2023-08-08T01:57:52;11.30;99.90
5834;DHT22;2943;48.012;10.968;2023-08-08T02:00:20;11.30;99.90
5834;DHT22;2943;48.012;10.968;2023-08-08T02:02:47;11.30;99.90
5834;DHT22;2943;48.012;10.968;2023-08-08T02:05:13;11.30;99.90
5834;DHT22;2943;48.012;10.968;2023-08-08T02:07:39;11.30;99.90
5834;DHT22;2943;48.012;10.968;2023-08-08T02:10:06;11.30;99.90
5834;DHT22;2943;48.012;10.968;2023-08-08T02:12:33;11.30;99.90
5834;DHT22;2943;48.012;10.968;2023-08-08T02:14:59;11.30;99.90
5834;DHT22;2943;48.012;10.968;2023-08-08T02:17:28;11.20;99.90
5834;DHT22;2943;48.012;10.968;2023-08-08T02:19:55;11.20;99.90
5834;DHT22;2943;48.012;10.968;2023-08-08T02:22:22;11.20;99.90
5834;DHT22;2943;48.012;10.968;2023-08-08T02:24:48;11.20;99.90
5834;DHT22;2943;48.012;10.968;2023-08-08T02:27:15;11.20;99.90
5834;DHT22;2943;48.012;10.968;2023-08-08T02:29:41;11.20;99.90
5834;DHT22;2943;48.012;10.968;2023-08-08T02:32:08;11.20;99.90
5834;DHT22;2943;48.012;10.968;2023-08-08T02:34:36;11.20;99.90
5834;DHT22;2943;48.012;10.968;2023-08-08T02:37:03;11.20;99.90
5834;DHT22;2943;48.012;10.968;2023-08-08T02:39:30;11.20;99.90
5834;DHT22;2943;48.012;10.968;2023-08-08T02:41:56;11.20;99.90
5834;DHT22;2943;48.012;10.968;2023-08-08T02:44:23;11.20;99.90
5834;DHT22;2943;48.012;10.968;2023-08-08T02:46:50;11.20;99.90
5834;DHT22;2943;48.012;10.968;2023-08-08T02:49:16;11.20;99.90
5834;DHT22;2943;48.012;10.968;2023-08-08T02:51:44;11.20;99.90
5834;DHT22;2943;48.012;10.968;2023-08-08T02:54:11;11.20;99.90
5834;DHT22;2943;48.012;10.968;2023-08-08T02:56:37;11.20;99.90
5834;DHT22;2943;48.012;10.968;2023-08-08T02:59:04;11.20;99.90
5834;DHT22;2943;48.012;10.968;2023-08-08T03:01:31;11.20;99.90
5834;DHT22;2943;48.012;10.968;2023-08-08T03:03:57;11.20;99.90
5834;DHT22;2943;48.012;10.968;2023-08-08T03:06:24;11.30;99.90
5834;DHT22;2943;48.012;10.968;2023-08-08T03:08:52;11.30;99.90
5834;DHT22;2943;48.012;10.968;2023-08-08T03:11:19;11.20;99.90
5834;DHT22;2943;48.012;10.968;2023-08-08T03:13:45;11.20;99.90
5834;DHT22;2943;48.012;10.968;2023-08-08T03:16:12;11.30;99.90
5834;DHT22;2943;48.012;10.968;2023-08-08T03:18:39;11.30;99.90
5834;DHT22;2943;48.012;10.968;2023-08-08T03:21:05;11.30;99.90
5834;DHT22;2943;48.012;10.968;2023-08-08T03:23:32;11.40;99.90
5834;DHT22;2943;48.012;10.968;2023-08-08T03:26:00;11.40;99.90
5834;DHT22;2943;48.012;10.968;2023-08-08T03:28:26;11.40;99.90
5834;DHT22;2943;48.012;10.968;2023-08-08T03:30:53;11.40;99.90
5834;DHT22;2943;48.012;10.968;2023-08-08T03:33:19;11.40;99.90
5834;DHT22;2943;48.012;10.968;2023-08-08T03:35:46;11.40;99.90
5834;DHT22;2943;48.012;10.968;2023-08-08T03:38:13;11.50;99.90
5834;DHT22;2943;48.012;10.968;2023-08-08T03:40:39;11.50;99.90
5834;DHT22;2943;48.012;10.968;2023-08-08T03:43:07;11.50;99.90
5834;DHT22;2943;48.012;10.968;2023-08-08T03:45:34;11.60;99.90
5834;DHT22;2943;48.012;10.968;2023-08-08T03:48:00;11.60;99.90
5834;DHT22;2943;48.012;10.968;2023-08-08T03:50:27;11.60;99.90
5834;DHT22;2943;48.012;10.968;2023-08-08T03:52:54;11.60;99.90
5834;DHT22;2943;48.012;10.968;2023-08-08T03:55:21;11.60;99.90
5834;DHT22;2943;48.012;10.968;2023-08-08T03:57:47;11.60;99.90
5834;DHT22;2943;48.012;10.968;2023-08-08T04:00:16;11.60;99.90
5834;DHT22;2943;48.012;10.968;2023-08-08T04:02:43;11.70;99.90
5834;DHT22;2943;48.012;10.968;2023-08-08T04:05:09;11.70;99.90
5834;DHT22;2943;48.012;10.968;2023-08-08T04:07:37;11.70;99.90
5834;DHT22;2943;48.012;10.968;2023-08-08T04:10:04;11.70;99.90
5834;DHT22;2943;48.012;10.968;2023-08-08T04:12:31;11.60;99.90
5834;DHT22;2943;48.012;10.968;2023-08-08T04:14:59;11.80;99.90
5834;DHT22;2943;48.012;10.968;2023-08-08T04:17:27;12.00;99.90
5834;DHT22;2943;48.012;10.968;2023-08-08T04:19:53;12.10;99.90
5834;DHT22;2943;48.012;10.968;2023-08-08T04:22:20;12.20;99.90
5834;DHT22;2943;48.012;10.968;2023-08-08T04:24:46;12.20;99.90
5834;DHT22;2943;48.012;10.968;2023-08-08T04:27:13;12.20;99.90
5834;DHT22;2943;48.012;10.968;2023-08-08T04:29:39;12.20;99.90
5834;DHT22;2943;48.012;10.968;2023-08-08T04:32:06;12.20;99.90
5834;DHT22;2943;48.012;10.968;2023-08-08T04:34:34;12.20;99.90
5834;DHT22;2943;48.012;10.968;2023-08-08T04:37:01;12.10;99.90
5834;DHT22;2943;48.012;10.968;2023-08-08T04:39:27;12.10;99.90
5834;DHT22;2943;48.012;10.968;2023-08-08T04:41:54;12.10;99.90
5834;DHT22;2943;48.012;10.968;2023-08-08T04:44:21;12.10;99.90
5834;DHT22;2943;48.012;10.968;2023-08-08T04:46:47;12.10;99.90
5834;DHT22;2943;48.012;10.968;2023-08-08T04:49:14;12.10;99.90
5834;DHT22;2943;48.012;10.968;2023-08-08T04:51:42;12.10;99.90
5834;DHT22;2943;48.012;10.968;2023-08-08T04:54:09;12.10;99.90
5834;DHT22;2943;48.012;10.968;2023-08-08T04:56:35;12.20;99.90
5834;DHT22;2943;48.012;10.968;2023-08-08T04:59:02;12.20;99.90
5834;DHT22;2943;48.012;10.968;2023-08-08T05:01:28;12.20;99.90
5834;DHT22;2943;48.012;10.968;2023-08-08T05:03:55;12.20;99.90
5834;DHT22;2943;48.012;10.968;2023-08-08T05:06:22;12.20;99.90
5834;DHT22;2943;48.012;10.968;2023-08-08T05:08:50;12.20;99.90
5834;DHT22;2943;48.012;10.968;2023-08-08T05:11:17;12.20;99.90
5834;DHT22;2943;48.012;10.968;2023-08-08T05:13:44;12.20;99.90
5834;DHT22;2943;48.012;10.968;2023-08-08T05:16:10;12.20;99.90
5834;DHT22;2943;48.012;10.968;2023-08-08T05:18:37;12.30;99.90
5834;DHT22;2943;48.012;10.968;2023-08-08T05:21:03;12.20;99.90
5834;DHT22;2943;48.012;10.968;2023-08-08T05:23:30;12.20;99.90
5834;DHT22;2943;48.012;10.968;2023-08-08T05:25:58;12.20;99.90
5834;DHT22;2943;48.012;10.968;2023-08-08T05:28:25;12.30;99.90
5834;DHT22;2943;48.012;10.968;2023-08-08T05:30:52;12.30;99.90
5834;DHT22;2943;48.012;10.968;2023-08-08T05:33:18;12.30;99.90
5834;DHT22;2943;48.012;10.968;2023-08-08T05:35:45;12.30;99.90
5834;DHT22;2943;48.012;10.968;2023-08-08T05:38:11;12.30;99.90
5834;DHT22;2943;48.012;10.968;2023-08-08T05:40:38;12.30;99.90
5834;DHT22;2943;48.012;10.968;2023-08-08T05:43:06;12.30;99.90
5834;DHT22;2943;48.012;10.968;2023-08-08T05:45:33;12.30;99.90
5834;DHT22;2943;48.012;10.968;2023-08-08T05:48:00;12.30;99.90
5834;DHT22;2943;48.012;10.968;2023-08-08T05:50:26;12.30;99.90
5834;DHT22;2943;48.012;10.968;2023-08-08T05:52:53;12.40;99.90
5834;DHT22;2943;48.012;10.968;2023-08-08T05:55:20;12.40;99.90
5834;DHT22;2943;48.012;10.968;2023-08-08T05:57:46;12.50;99.90
5834;DHT22;2943;48.012;10.968;2023-08-08T06:00:15;12.60;99.90
5834;DHT22;2943;48.012;10.968;2023-08-08T06:02:41;12.70;99.90
5834;DHT22;2943;48.012;10.968;2023-08-08T06:05:08;12.70;99.90
5834;DHT22;2943;48.012;10.968;2023-08-08T06:07:35;12.80;99.90
5834;DHT22;2943;48.012;10.968;2023-08-08T06:10:01;12.90;99.90
5834;DHT22;2943;48.012;10.968;2023-08-08T06:12:28;13.00;99.90
5834;DHT22;2943;48.012;10.968;2023-08-08T06:14:54;13.00;99.90
5834;DHT22;2943;48.012;10.968;2023-08-08T06:17:22;13.10;99.90
5834;DHT22;2943;48.012;10.968;2023-08-08T06:19:49;13.10;99.90
5834;DHT22;2943;48.012;10.968;2023-08-08T06:22:16;13.20;99.90
5834;DHT22;2943;48.012;10.968;2023-08-08T06:24:43;13.20;99.90
5834;DHT22;2943;48.012;10.968;2023-08-08T06:27:10;13.20;99.90
5834;DHT22;2943;48.012;10.968;2023-08-08T06:29:36;13.30;99.90
5834;DHT22;2943;48.012;10.968;2023-08-08T06:32:03;13.30;99.90
5834;DHT22;2943;48.012;10.968;2023-08-08T06:34:31;13.40;99.90
5834;DHT22;2943;48.012;10.968;2023-08-08T06:36:57;13.40;99.90
5834;DHT22;2943;48.012;10.968;2023-08-08T06:39:24;13.50;99.90
5834;DHT22;2943;48.012;10.968;2023-08-08T06:41:51;13.50;99.90
5834;DHT22;2943;48.012;10.968;2023-08-08T06:44:17;13.60;99.90
5834;DHT22;2943;48.012;10.968;2023-08-08T06:46:44;13.70;99.90
5834;DHT22;2943;48.012;10.968;2023-08-08T06:49:10;13.80;99.90
5834;DHT22;2943;48.012;10.968;2023-08-08T06:51:38;13.90;99.90
5834;DHT22;2943;48.012;10.968;2023-08-08T06:54:05;13.90;99.90
5834;DHT22;2943;48.012;10.968;2023-08-08T06:56:33;14.00;99.90
5834;DHT22;2943;48.012;10.968;2023-08-08T06:58:59;14.00;99.90
5834;DHT22;2943;48.012;10.968;2023-08-08T07:01:26;14.10;99.90
5834;DHT22;2943;48.012;10.968;2023-08-08T07:03:53;14.10;99.90
5834;DHT22;2943;48.012;10.968;2023-08-08T07:06:19;14.10;99.90
5834;DHT22;2943;48.012;10.968;2023-08-08T07:08:47;14.10;99.90
5834;DHT22;2943;48.012;10.968;2023-08-08T07:11:14;14.20;99.90
5834;DHT22;2943;48.012;10.968;2023-08-08T07:13:40;14.20;99.90
5834;DHT22;2943;48.012;10.968;2023-08-08T07:16:07;14.30;99.90
5834;DHT22;2943;48.012;10.968;2023-08-08T07:18:34;14.30;99.90
5834;DHT22;2943;48.012;10.968;2023-08-08T07:21:00;14.40;99.90
5834;DHT22;2943;48.012;10.968;2023-08-08T07:23:27;14.40;99.90
5834;DHT22;2943;48.012;10.968;2023-08-08T07:25:55;14.50;99.90
5834;DHT22;2943;48.012;10.968;2023-08-08T07:28:21;14.50;99.90
5834;DHT22;2943;48.012;10.968;2023-08-08T07:30:48;14.60;99.90
5834;DHT22;2943;48.012;10.968;2023-08-08T07:33:15;14.60;99.90
5834;DHT22;2943;48.012;10.968;2023-08-08T07:35:41;14.70;99.90
5834;DHT22;2943;48.012;10.968;2023-08-08T07:38:08;14.70;99.90
5834;DHT22;2943;48.012;10.968;2023-08-08T07:40:35;14.80;99.90
5834;DHT22;2943;48.012;10.968;2023-08-08T07:43:03;14.90;99.90
5834;DHT22;2943;48.012;10.968;2023-08-08T07:45:30;14.90;99.90
5834;DHT22;2943;48.012;10.968;2023-08-08T07:47:56;15.00;99.90
5834;DHT22;2943;48.012;10.968;2023-08-08T07:50:23;15.10;99.90
5834;DHT22;2943;48.012;10.968;2023-08-08T07:52:49;15.20;99.90
5834;DHT22;2943;48.012;10.968;2023-08-08T07:55:16;15.30;99.90
5834;DHT22;2943;48.012;10.968;2023-08-08T07:57:43;15.30;99.90
5834;DHT22;2943;48.012;10.968;2023-08-08T08:00:11;15.40;99.90
5834;DHT22;2943;48.012;10.968;2023-08-08T08:02:38;15.50;99.90
5834;DHT22;2943;48.012;10.968;2023-08-08T08:05:05;15.60;99.90
5834;DHT22;2943;48.012;10.968;2023-08-08T08:07:33;15.70;99.90
5834;DHT22;2943;48.012;10.968;2023-08-08T08:10:00;15.80;99.90
5834;DHT22;2943;48.012;10.968;2023-08-08T08:12:26;15.90;99.90
5834;DHT22;2943;48.012;10.968;2023-08-08T08:14:53;16.00;99.90
5834;DHT22;2943;48.012;10.968;2023-08-08T08:17:21;16.00;99.90
5834;DHT22;2943;48.012;10.968;2023-08-08T08:19:47;16.10;99.90
5834;DHT22;2943;48.012;10.968;2023-08-08T08:22:14;16.10;99.90
5834;DHT22;2943;48.012;10.968;2023-08-08T08:24:41;16.20;99.90
5834;DHT22;2943;48.012;10.968;2023-08-08T08:27:07;16.20;99.90
5834;DHT22;2943;48.012;10.968;2023-08-08T08:29:34;16.30;99.90
5834;DHT22;2943;48.012;10.968;2023-08-08T08:32:00;16.40;99.90
5834;DHT22;2943;48.012;10.968;2023-08-08T08:34:28;16.50;99.90
5834;DHT22;2943;48.012;10.968;2023-08-08T08:36:55;16.60;99.90
5834;DHT22;2943;48.012;10.968;2023-08-08T08:39:22;16.70;99.90
5834;DHT22;2943;48.012;10.968;2023-08-08T08:41:49;16.80;99.90
5834;DHT22;2943;48.012;10.968;2023-08-08T08:44:16;16.90;99.90
5834;DHT22;2943;48.012;10.968;2023-08-08T08:46:42;16.90;99.90
5834;DHT22;2943;48.012;10.968;2023-08-08T08:49:10;16.90;99.90
5834;DHT22;2943;48.012;10.968;2023-08-08T08:51:39;17.00;99.90
5834;DHT22;2943;48.012;10.968;2023-08-08T08:54:06;17.10;99.90
5834;DHT22;2943;48.012;10.968;2023-08-08T08:56:32;17.20;99.90
5834;DHT22;2943;48.012;10.968;2023-08-08T08:58:59;17.20;99.90
5834;DHT22;2943;48.012;10.968;2023-08-08T09:01:26;17.20;99.90
5834;DHT22;2943;48.012;10.968;2023-08-08T09:03:53;17.30;99.90
5834;DHT22;2943;48.012;10.968;2023-08-08T09:06:21;17.30;99.90
5834;DHT22;2943;48.012;10.968;2023-08-08T09:08:50;17.40;99.90
5834;DHT22;2943;48.012;10.968;2023-08-08T09:11:16;17.50;99.90
5834;DHT22;2943;48.012;10.968;2023-08-08T09:13:43;17.70;99.90
5834;DHT22;2943;48.012;10.968;2023-08-08T09:16:09;17.80;99.90
5834;DHT22;2943;48.012;10.968;2023-08-08T09:18:37;17.90;99.90
5834;DHT22;2943;48.012;10.968;2023-08-08T09:21:04;18.00;99.90
5834;DHT22;2943;48.012;10.968;2023-08-08T09:23:31;18.00;99.90
5834;DHT22;2943;48.012;10.968;2023-08-08T09:25:59;18.00;99.90
5834;DHT22;2943;48.012;10.968;2023-08-08T09:28:25;18.00;99.90
5834;DHT22;2943;48.012;10.968;2023-08-08T09:30:52;18.00;99.90
5834;DHT22;2943;48.012;10.968;2023-08-08T09:33:19;18.10;99.90
5834;DHT22;2943;48.012;10.968;2023-08-08T09:35:45;18.10;99.90
5834;DHT22;2943;48.012;10.968;2023-08-08T09:38:12;18.00;99.90
5834;DHT22;2943;48.012;10.968;2023-08-08T09:40:38;17.90;99.90
5834;DHT22;2943;48.012;10.968;2023-08-08T09:43:07;17.90;99.90
5834;DHT22;2943;48.012;10.968;2023-08-08T09:45:35;17.90;99.90
5834;DHT22;2943;48.012;10.968;2023-08-08T09:48:02;18.00;99.90
5834;DHT22;2943;48.012;10.968;2023-08-08T09:50:29;18.10;99.90
5834;DHT22;2943;48.012;10.968;2023-08-08T09:52:58;18.30;99.90
5834;DHT22;2943;48.012;10.968;2023-08-08T09:55:24;18.40;99.90
5834;DHT22;2943;48.012;10.968;2023-08-08T09:57:51;18.50;99.90
5834;DHT22;2943;48.012;10.968;2023-08-08T10:00:20;18.50;99.90
5834;DHT22;2943;48.012;10.968;2023-08-08T10:02:46;18.60;99.90
5834;DHT22;2943;48.012;10.968;2023-08-08T10:05:13;18.70;99.90
5834;DHT22;2943;48.012;10.968;2023-08-08T10:07:41;18.80;99.90
5834;DHT22;2943;48.012;10.968;2023-08-08T10:10:08;18.80;99.90
5834;DHT22;2943;48.012;10.968;2023-08-08T10:12:36;18.90;99.90
5834;DHT22;2943;48.012;10.968;2023-08-08T10:15:03;18.80;99.90
5834;DHT22;2943;48.012;10.968;2023-08-08T10:17:35;18.90;99.90
5834;DHT22;2943;48.012;10.968;2023-08-08T10:20:02;18.90;99.90
5834;DHT22;2943;48.012;10.968;2023-08-08T10:22:35;19.00;99.90
5834;DHT22;2943;48.012;10.968;2023-08-08T10:25:03;18.90;99.90
5834;DHT22;2943;48.012;10.968;2023-08-08T10:27:31;18.80;99.90
5834;DHT22;2943;48.012;10.968;2023-08-08T10:30:01;18.90;99.90
5834;DHT22;2943;48.012;10.968;2023-08-08T10:32:28;18.80;99.90
5834;DHT22;2943;48.012;10.968;2023-08-08T10:34:56;18.80;99.90
5834;DHT22;2943;48.012;10.968;2023-08-08T10:37:26;18.90;99.90
5834;DHT22;2943;48.012;10.968;2023-08-08T10:39:53;18.90;99.90
5834;DHT22;2943;48.012;10.968;2023-08-08T10:42:20;19.00;99.90
5834;DHT22;2943;48.012;10.968;2023-08-08T10:44:50;19.00;99.90
5834;DHT22;2943;48.012;10.968;2023-08-08T10:47:21;19.00;99.90
5834;DHT22;2943;48.012;10.968;2023-08-08T10:49:57;18.90;99.90
5834;DHT22;2943;48.012;10.968;2023-08-08T10:52:23;18.90;99.90
5834;DHT22;2943;48.012;10.968;2023-08-08T10:54:51;19.10;99.90
5834;DHT22;2943;48.012;10.968;2023-08-08T10:57:18;19.20;99.90
5834;DHT22;2943;48.012;10.968;2023-08-08T10:59:45;19.20;99.90
5834;DHT22;2943;48.012;10.968;2023-08-08T11:02:12;19.30;99.90
5834;DHT22;2943;48.012;10.968;2023-08-08T11:04:39;19.40;99.90
5834;DHT22;2943;48.012;10.968;2023-08-08T11:07:07;19.50;99.90
5834;DHT22;2943;48.012;10.968;2023-08-08T11:09:34;19.70;99.90
5834;DHT22;2943;48.012;10.968;2023-08-08T11:12:01;19.70;99.90
5834;DHT22;2943;48.012;10.968;2023-08-08T11:14:28;19.90;99.90
5834;DHT22;2943;48.012;10.968;2023-08-08T11:16:54;20.00;99.90
5834;DHT22;2943;48.012;10.968;2023-08-08T11:19:21;20.00;99.90
5834;DHT22;2943;48.012;10.968;2023-08-08T11:21:48;20.00;99.90
5834;DHT22;2943;48.012;10.968;2023-08-08T11:24:16;20.00;99.90
5834;DHT22;2943;48.012;10.968;2023-08-08T11:26:44;19.90;99.90
5834;DHT22;2943;48.012;10.968;2023-08-08T11:29:12;19.80;99.90
5834;DHT22;2943;48.012;10.968;2023-08-08T11:31:39;19.80;99.90
5834;DHT22;2943;48.012;10.968;2023-08-08T11:34:06;19.70;99.90
5834;DHT22;2943;48.012;10.968;2023-08-08T11:36:32;19.80;99.90
5834;DHT22;2943;48.012;10.968;2023-08-08T11:38:59;20.00;99.90
5834;DHT22;2943;48.012;10.968;2023-08-08T11:41:27;20.10;99.90
5834;DHT22;2943;48.012;10.968;2023-08-08T11:43:54;20.20;99.90
5834;DHT22;2943;48.012;10.968;2023-08-08T11:46:23;20.30;99.90
5834;DHT22;2943;48.012;10.968;2023-08-08T11:48:49;20.40;99.90
5834;DHT22;2943;48.012;10.968;2023-08-08T11:51:16;20.50;99.90
5834;DHT22;2943;48.012;10.968;2023-08-08T11:53:49;20.60;99.90
5834;DHT22;2943;48.012;10.968;2023-08-08T11:56:17;20.70;99.90
5834;DHT22;2943;48.012;10.968;2023-08-08T11:58:45;20.70;99.90
5834;DHT22;2943;48.012;10.968;2023-08-08T12:01:12;20.70;99.90
5834;DHT22;2943;48.012;10.968;2023-08-08T12:03:39;20.60;99.90
5834;DHT22;2943;48.012;10.968;2023-08-08T12:06:11;20.50;99.90
5834;DHT22;2943;48.012;10.968;2023-08-08T12:08:38;20.50;99.90
5834;DHT22;2943;48.012;10.968;2023-08-08T12:11:05;20.60;99.90
5834;DHT22;2943;48.012;10.968;2023-08-08T12:13:31;20.70;99.90
5834;DHT22;2943;48.012;10.968;2023-08-08T12:16:02;20.70;99.90
5834;DHT22;2943;48.012;10.968;2023-08-08T12:18:29;20.90;99.90
5834;DHT22;2943;48.012;10.968;2023-08-08T12:20:56;21.00;99.90
5834;DHT22;2943;48.012;10.968;2023-08-08T12:23:22;21.00;99.90
5834;DHT22;2943;48.012;10.968;2023-08-08T12:25:49;20.90;99.90
5834;DHT22;2943;48.012;10.968;2023-08-08T12:28:16;20.70;99.90
5834;DHT22;2943;48.012;10.968;2023-08-08T12:30:42;20.60;99.90
5834;DHT22;2943;48.012;10.968;2023-08-08T12:33:10;20.50;99.90
5834;DHT22;2943;48.012;10.968;2023-08-08T12:35:37;20.50;99.90
5834;DHT22;2943;48.012;10.968;2023-08-08T12:38:04;20.60;99.90
5834;DHT22;2943;48.012;10.968;2023-08-08T12:40:31;20.60;99.90
5834;DHT22;2943;48.012;10.968;2023-08-08T12:42:59;20.70;99.90
5834;DHT22;2943;48.012;10.968;2023-08-08T12:45:25;20.80;99.90
5834;DHT22;2943;48.012;10.968;2023-08-08T12:47:52;20.90;99.90
5834;DHT22;2943;48.012;10.968;2023-08-08T12:50:20;21.10;99.90
5834;DHT22;2943;48.012;10.968;2023-08-08T12:52:46;21.20;99.90
5834;DHT22;2943;48.012;10.968;2023-08-08T12:55:13;21.40;99.90
5834;DHT22;2943;48.012;10.968;2023-08-08T12:57:45;21.50;99.90
5834;DHT22;2943;48.012;10.968;2023-08-08T13:00:12;21.60;99.90
5834;DHT22;2943;48.012;10.968;2023-08-08T13:02:39;21.70;99.90
5834;DHT22;2943;48.012;10.968;2023-08-08T13:05:05;21.80;99.90
5834;DHT22;2943;48.012;10.968;2023-08-08T13:07:33;21.80;99.90
5834;DHT22;2943;48.012;10.968;2023-08-08T13:10:00;21.90;99.90
5834;DHT22;2943;48.012;10.968;2023-08-08T13:12:27;21.80;99.90
5834;DHT22;2943;48.012;10.968;2023-08-08T13:14:53;21.90;99.90
5834;DHT22;2943;48.012;10.968;2023-08-08T13:17:20;22.00;99.90
5834;DHT22;2943;48.012;10.968;2023-08-08T13:19:47;22.10;99.90
5834;DHT22;2943;48.012;10.968;2023-08-08T13:22:13;22.20;99.90
5834;DHT22;2943;48.012;10.968;2023-08-08T13:24:41;22.20;99.90
5834;DHT22;2943;48.012;10.968;2023-08-08T13:27:08;22.30;99.90
5834;DHT22;2943;48.012;10.968;2023-08-08T13:29:34;22.40;99.90
5834;DHT22;2943;48.012;10.968;2023-08-08T13:32:01;22.50;99.90
5834;DHT22;2943;48.012;10.968;2023-08-08T13:34:28;22.60;99.90
5834;DHT22;2943;48.012;10.968;2023-08-08T13:36:54;22.60;99.90
5834;DHT22;2943;48.012;10.968;2023-08-08T13:39:21;22.60;99.90
5834;DHT22;2943;48.012;10.968;2023-08-08T13:41:49;22.70;99.90
5834;DHT22;2943;48.012;10.968;2023-08-08T13:44:15;22.80;99.90
5834;DHT22;2943;48.012;10.968;2023-08-08T13:46:42;22.80;99.90
5834;DHT22;2943;48.012;10.968;2023-08-08T13:49:08;22.90;99.90
5834;DHT22;2943;48.012;10.968;2023-08-08T13:51:36;23.00;99.90
5834;DHT22;2943;48.012;10.968;2023-08-08T13:54:03;23.00;99.90
5834;DHT22;2943;48.012;10.968;2023-08-08T13:56:29;22.90;99.90
5834;DHT22;2943;48.012;10.968;2023-08-08T13:58:57;22.90;99.90
5834;DHT22;2943;48.012;10.968;2023-08-08T14:01:24;23.00;99.90
5834;DHT22;2943;48.012;10.968;2023-08-08T14:03:51;23.00;99.90
5834;DHT22;2943;48.012;10.968;2023-08-08T14:06:17;22.90;99.90
5834;DHT22;2943;48.012;10.968;2023-08-08T14:08:44;22.90;99.90
5834;DHT22;2943;48.012;10.968;2023-08-08T14:11:11;22.70;99.90
5834;DHT22;2943;48.012;10.968;2023-08-08T14:13:37;22.60;99.90
5834;DHT22;2943;48.012;10.968;2023-08-08T14:16:06;22.60;99.90
5834;DHT22;2943;48.012;10.968;2023-08-08T14:18:33;22.70;99.90
5834;DHT22;2943;48.012;10.968;2023-08-08T14:21:00;22.80;99.90
5834;DHT22;2943;48.012;10.968;2023-08-08T14:23:28;22.80;99.90
5834;DHT22;2943;48.012;10.968;2023-08-08T14:25:54;22.80;99.90
5834;DHT22;2943;48.012;10.968;2023-08-08T14:28:21;22.80;99.90
5834;DHT22;2943;48.012;10.968;2023-08-08T14:30:48;22.90;99.90
5834;DHT22;2943;48.012;10.968;2023-08-08T14:33:16;23.00;99.90
5834;DHT22;2943;48.012;10.968;2023-08-08T14:35:42;23.10;99.90
5834;DHT22;2943;48.012;10.968;2023-08-08T14:38:09;23.20;99.90
5834;DHT22;2943;48.012;10.968;2023-08-08T14:40:35;23.30;99.90
5834;DHT22;2943;48.012;10.968;2023-08-08T14:43:02;23.40;99.90
5834;DHT22;2943;48.012;10.968;2023-08-08T14:45:35;23.40;99.90
5834;DHT22;2943;48.012;10.968;2023-08-08T14:48:03;23.50;99.90
5834;DHT22;2943;48.012;10.968;2023-08-08T14:50:31;23.50;99.90
5834;DHT22;2943;48.012;10.968;2023-08-08T14:52:57;23.50;99.90
5834;DHT22;2943;48.012;10.968;2023-08-08T14:55:24;23.30;99.90
5834;DHT22;2943;48.012;10.968;2023-08-08T14:57:51;23.00;99.90
5834;DHT22;2943;48.012;10.968;2023-08-08T15:00:17;22.90;99.90
5834;DHT22;2943;48.012;10.968;2023-08-08T15:02:44;22.90;99.90
5834;DHT22;2943;48.012;10.968;2023-08-08T15:05:11;22.90;99.90
5834;DHT22;2943;48.012;10.968;2023-08-08T15:07:39;23.00;99.90
5834;DHT22;2943;48.012;10.968;2023-08-08T15:10:06;23.00;99.90
5834;DHT22;2943;48.012;10.968;2023-08-08T15:12:32;23.00;99.90
5834;DHT22;2943;48.012;10.968;2023-08-08T15:14:59;22.80;99.90
5834;DHT22;2943;48.012;10.968;2023-08-08T15:17:25;22.60;99.90
5834;DHT22;2943;48.012;10.968;2023-08-08T15:19:52;22.40;99.90
5834;DHT22;2943;48.012;10.968;2023-08-08T15:22:19;22.30;99.90
5834;DHT22;2943;48.012;10.968;2023-08-08T15:24:47;22.20;99.90
5834;DHT22;2943;48.012;10.968;2023-08-08T15:27:13;22.20;99.90
5834;DHT22;2943;48.012;10.968;2023-08-08T15:29:40;22.20;99.90
5834;DHT22;2943;48.012;10.968;2023-08-08T15:32:07;22.20;99.90
5834;DHT22;2943;48.012;10.968;2023-08-08T15:34:33;22.10;99.90
5834;DHT22;2943;48.012;10.968;2023-08-08T15:37:01;22.20;99.90
5834;DHT22;2943;48.012;10.968;2023-08-08T15:39:28;22.30;99.90
5834;DHT22;2943;48.012;10.968;2023-08-08T15:41:56;22.30;99.90
5834;DHT22;2943;48.012;10.968;2023-08-08T15:44:23;22.20;99.90